sensor_id;sensor_type;location;lat;lon;timestamp;temperature;humidity
69359;HTU21D;56520;49.066;8.660;2023-01-19T00:01:19;-1.35;91.76
69359;HTU21D;56520;49.066;8.660;2023-01-19T00:03:44;-1.28;91.48
69359;HTU21D;56520;49.066;8.660;2023-01-19T00:06:10;-1.18;91.11
69359;HTU21D;56520;49.066;8.660;2023-01-19T00:08:39;-1.19;90.93
69359;HTU21D;56520;49.066;8.660;2023-01-19T00:11:05;-1.27;91.02
69359;HTU21D;56520;49.066;8.660;2023-01-19T00:13:31;-1.36;91.18
69359;HTU21D;56520;49.066;8.660;2023-01-19T00:15:57;-1.40;91.34
69359;HTU21D;56520;49.066;8.660;2023-01-19T00:18:22;-1.38;91.28
69359;HTU21D;56520;49.066;8.660;2023-01-19T00:20:48;-1.40;91.28
69359;HTU21D;56520;49.066;8.660;2023-01-19T00:23:14;-1.43;91.36
69359;HTU21D;56520;49.066;8.660;2023-01-19T00:25:40;-1.44;91.41
69359;HTU21D;56520;49.066;8.660;2023-01-19T00:28:12;-1.48;91.48
69359;HTU21D;56520;49.066;8.660;2023-01-19T00:30:39;-1.61;91.55
69359;HTU21D;56520;49.066;8.660;2023-01-19T00:33:04;-1.75;91.77
69359;HTU21D;56520;49.066;8.660;2023-01-19T00:35:30;-1.86;92.18
69359;HTU21D;56520;49.066;8.660;2023-01-19T00:37:57;-1.97;92.50
69359;HTU21D;56520;49.066;8.660;2023-01-19T00:40:22;-2.06;92.56
69359;HTU21D;56520;49.066;8.660;2023-01-19T00:42:48;-2.17;92.69
69359;HTU21D;56520;49.066;8.660;2023-01-19T00:45:15;-2.26;92.84
69359;HTU21D;56520;49.066;8.660;2023-01-19T00:47:42;-2.34;93.01
69359;HTU21D;56520;49.066;8.660;2023-01-19T00:50:09;-2.39;93.33
69359;HTU21D;56520;49.066;8.660;2023-01-19T00:52:39;-2.43;93.72
69359;HTU21D;56520;49.066;8.660;2023-01-19T00:55:06;-2.44;93.80
69359;HTU21D;56520;49.066;8.660;2023-01-19T00:57:32;-2.49;93.78
69359;HTU21D;56520;49.066;8.660;2023-01-19T00:59:57;-2.54;93.80
69359;HTU21D;56520;49.066;8.660;2023-01-19T01:02:23;-2.57;93.89
69359;HTU21D;56520;49.066;8.660;2023-01-19T01:04:49;-2.59;93.92
69359;HTU21D;56520;49.066;8.660;2023-01-19T01:07:22;-2.63;93.94
69359;HTU21D;56520;49.066;8.660;2023-01-19T01:09:48;-2.67;93.92
69359;HTU21D;56520;49.066;8.660;2023-01-19T01:12:14;-2.71;93.96
69359;HTU21D;56520;49.066;8.660;2023-01-19T01:14:39;-2.71;93.99
69359;HTU21D;56520;49.066;8.660;2023-01-19T01:17:05;-2.75;94.00
69359;HTU21D;56520;49.066;8.660;2023-01-19T01:19:36;-2.80;94.04
69359;HTU21D;56520;49.066;8.660;2023-01-19T01:22:01;-2.87;94.06
69359;HTU21D;56520;49.066;8.660;2023-01-19T01:24:27;-2.93;94.18
69359;HTU21D;56520;49.066;8.660;2023-01-19T01:26:52;-2.96;94.30
69359;HTU21D;56520;49.066;8.660;2023-01-19T01:29:17;-3.01;94.32
69359;HTU21D;56520;49.066;8.660;2023-01-19T01:31:43;-3.04;94.35
69359;HTU21D;56520;49.066;8.660;2023-01-19T01:34:08;-3.08;94.37
69359;HTU21D;56520;49.066;8.660;2023-01-19T01:36:33;-3.09;94.41
69359;HTU21D;56520;49.066;8.660;2023-01-19T01:39:00;-3.11;94.42
69359;HTU21D;56520;49.066;8.660;2023-01-19T01:41:26;-3.17;94.43
69359;HTU21D;56520;49.066;8.660;2023-01-19T01:43:54;-3.23;94.45
69359;HTU21D;56520;49.066;8.660;2023-01-19T01:46:23;-3.26;94.52
69359;HTU21D;56520;49.066;8.660;2023-01-19T01:49:13;-3.30;94.61
69359;HTU21D;56520;49.066;8.660;2023-01-19T01:51:50;-3.32;94.65
69359;HTU21D;56520;49.066;8.660;2023-01-19T01:54:26;-3.36;94.68
69359;HTU21D;56520;49.066;8.660;2023-01-19T01:56:56;-3.39;94.74
69359;HTU21D;56520;49.066;8.660;2023-01-19T01:59:33;-3.43;94.80
69359;HTU21D;56520;49.066;8.660;2023-01-19T02:02:09;-3.42;95.01
69359;HTU21D;56520;49.066;8.660;2023-01-19T02:05:05;-3.39;95.25
69359;HTU21D;56520;49.066;8.660;2023-01-19T02:10:20;-3.30;95.42
69359;HTU21D;56520;49.066;8.660;2023-01-19T02:13:04;-3.23;95.36
69359;HTU21D;56520;49.066;8.660;2023-01-19T02:15:46;-3.23;95.23
69359;HTU21D;56520;49.066;8.660;2023-01-19T02:18:12;-3.26;95.20
69359;HTU21D;56520;49.066;8.660;2023-01-19T02:20:42;-3.27;95.17
69359;HTU21D;56520;49.066;8.660;2023-01-19T02:23:15;-3.30;95.13
69359;HTU21D;56520;49.066;8.660;2023-01-19T02:25:42;-3.32;95.14
69359;HTU21D;56520;49.066;8.660;2023-01-19T02:28:08;-3.30;95.17
69359;HTU21D;56520;49.066;8.660;2023-01-19T02:30:35;-3.23;95.29
69359;HTU21D;56520;49.066;8.660;2023-01-19T02:33:02;-3.16;95.35
69359;HTU21D;56520;49.066;8.660;2023-01-19T02:35:29;-3.11;95.29
69359;HTU21D;56520;49.066;8.660;2023-01-19T02:37:56;-3.07;95.21
69359;HTU21D;56520;49.066;8.660;2023-01-19T02:40:22;-3.03;95.17
69359;HTU21D;56520;49.066;8.660;2023-01-19T02:42:49;-2.98;95.08
69359;HTU21D;56520;49.066;8.660;2023-01-19T02:45:20;-2.96;95.04
69359;HTU21D;56520;49.066;8.660;2023-01-19T02:47:50;-2.94;95.12
69359;HTU21D;56520;49.066;8.660;2023-01-19T02:53:45;-2.83;94.96
69359;HTU21D;56520;49.066;8.660;2023-01-19T02:55:59;-2.73;94.89
69359;HTU21D;56520;49.066;8.660;2023-01-19T02:59:33;-2.62;94.79
69359;HTU21D;56520;49.066;8.660;2023-01-19T03:07:41;-2.61;94.43
69359;HTU21D;56520;49.066;8.660;2023-01-19T03:12:57;-2.61;94.48
69359;HTU21D;56520;49.066;8.660;2023-01-19T03:15:32;-2.66;94.49
69359;HTU21D;56520;49.066;8.660;2023-01-19T03:17:59;-2.72;94.56
69359;HTU21D;56520;49.066;8.660;2023-01-19T03:20:26;-2.76;94.62
69359;HTU21D;56520;49.066;8.660;2023-01-19T03:23:00;-2.75;94.73
69359;HTU21D;56520;49.066;8.660;2023-01-19T03:25:27;-2.74;94.81
69359;HTU21D;56520;49.066;8.660;2023-01-19T03:27:56;-2.77;94.85
69359;HTU21D;56520;49.066;8.660;2023-01-19T03:30:30;-2.76;94.90
69359;HTU21D;56520;49.066;8.660;2023-01-19T03:33:05;-2.78;94.97
69359;HTU21D;56520;49.066;8.660;2023-01-19T03:35:34;-2.79;95.00
69359;HTU21D;56520;49.066;8.660;2023-01-19T03:38:05;-2.82;95.05
69359;HTU21D;56520;49.066;8.660;2023-01-19T03:40:33;-2.88;95.13
69359;HTU21D;56520;49.066;8.660;2023-01-19T03:43:00;-2.88;95.20
69359;HTU21D;56520;49.066;8.660;2023-01-19T03:45:26;-2.82;95.33
69359;HTU21D;56520;49.066;8.660;2023-01-19T03:47:53;-2.82;95.30
69359;HTU21D;56520;49.066;8.660;2023-01-19T03:50:29;-2.90;95.31
69359;HTU21D;56520;49.066;8.660;2023-01-19T03:53:03;-2.96;95.32
69359;HTU21D;56520;49.066;8.660;2023-01-19T03:55:29;-3.00;95.37
69359;HTU21D;56520;49.066;8.660;2023-01-19T03:57:55;-3.06;95.42
69359;HTU21D;56520;49.066;8.660;2023-01-19T04:00:20;-3.11;95.49
69359;HTU21D;56520;49.066;8.660;2023-01-19T04:02:46;-3.16;95.55
69359;HTU21D;56520;49.066;8.660;2023-01-19T04:05:11;-3.19;95.62
69359;HTU21D;56520;49.066;8.660;2023-01-19T04:07:38;-3.18;95.68
69359;HTU21D;56520;49.066;8.660;2023-01-19T04:10:04;-3.10;95.79
69359;HTU21D;56520;49.066;8.660;2023-01-19T04:12:29;-2.92;95.83
69359;HTU21D;56520;49.066;8.660;2023-01-19T04:14:55;-2.75;95.78
69359;HTU21D;56520;49.066;8.660;2023-01-19T04:17:20;-2.59;95.62
69359;HTU21D;56520;49.066;8.660;2023-01-19T04:19:45;-2.47;95.43
69359;HTU21D;56520;49.066;8.660;2023-01-19T04:22:11;-2.34;95.19
69359;HTU21D;56520;49.066;8.660;2023-01-19T04:24:36;-2.27;94.92
69359;HTU21D;56520;49.066;8.660;2023-01-19T04:27:05;-2.23;94.83
69359;HTU21D;56520;49.066;8.660;2023-01-19T04:29:30;-2.20;94.74
69359;HTU21D;56520;49.066;8.660;2023-01-19T04:31:55;-2.17;94.66
69359;HTU21D;56520;49.066;8.660;2023-01-19T04:34:21;-2.12;94.59
69359;HTU21D;56520;49.066;8.660;2023-01-19T04:36:46;-2.04;94.54
69359;HTU21D;56520;49.066;8.660;2023-01-19T04:39:15;-1.99;94.50
69359;HTU21D;56520;49.066;8.660;2023-01-19T04:41:40;-1.91;94.41
69359;HTU21D;56520;49.066;8.660;2023-01-19T04:44:05;-1.87;94.34
69359;HTU21D;56520;49.066;8.660;2023-01-19T04:46:31;-1.85;94.23
69359;HTU21D;56520;49.066;8.660;2023-01-19T04:48:56;-1.88;94.11
69359;HTU21D;56520;49.066;8.660;2023-01-19T04:51:22;-2.01;94.01
69359;HTU21D;56520;49.066;8.660;2023-01-19T04:53:47;-2.16;94.19
69359;HTU21D;56520;49.066;8.660;2023-01-19T04:56:13;-2.30;94.44
69359;HTU21D;56520;49.066;8.660;2023-01-19T04:58:38;-2.43;94.63
69359;HTU21D;56520;49.066;8.660;2023-01-19T05:01:07;-2.52;94.88
69359;HTU21D;56520;49.066;8.660;2023-01-19T05:03:33;-2.61;95.08
69359;HTU21D;56520;49.066;8.660;2023-01-19T05:05:59;-2.67;95.26
69359;HTU21D;56520;49.066;8.660;2023-01-19T05:08:24;-2.71;95.52
69359;HTU21D;56520;49.066;8.660;2023-01-19T05:10:50;-2.73;95.56
69359;HTU21D;56520;49.066;8.660;2023-01-19T05:13:15;-2.76;95.72
69359;HTU21D;56520;49.066;8.660;2023-01-19T05:15:41;-2.81;95.72
69359;HTU21D;56520;49.066;8.660;2023-01-19T05:18:06;-2.81;95.81
69359;HTU21D;56520;49.066;8.660;2023-01-19T05:20:31;-2.76;95.88
69359;HTU21D;56520;49.066;8.660;2023-01-19T05:22:57;-2.68;95.91
69359;HTU21D;56520;49.066;8.660;2023-01-19T05:25:22;-2.58;95.87
69359;HTU21D;56520;49.066;8.660;2023-01-19T05:27:48;-2.47;95.81
69359;HTU21D;56520;49.066;8.660;2023-01-19T05:30:14;-2.37;95.72
69359;HTU21D;56520;49.066;8.660;2023-01-19T05:32:39;-2.30;95.57
69359;HTU21D;56520;49.066;8.660;2023-01-19T05:35:05;-2.23;95.40
69359;HTU21D;56520;49.066;8.660;2023-01-19T05:37:31;-2.16;95.25
69359;HTU21D;56520;49.066;8.660;2023-01-19T05:39:57;-2.13;95.09
69359;HTU21D;56520;49.066;8.660;2023-01-19T05:42:22;-2.09;94.95
69359;HTU21D;56520;49.066;8.660;2023-01-19T05:44:47;-2.04;94.81
69359;HTU21D;56520;49.066;8.660;2023-01-19T05:47:13;-2.04;94.73
69359;HTU21D;56520;49.066;8.660;2023-01-19T05:49:39;-2.06;94.63
69359;HTU21D;56520;49.066;8.660;2023-01-19T05:52:04;-2.15;94.60
69359;HTU21D;56520;49.066;8.660;2023-01-19T05:54:30;-2.31;94.59
69359;HTU21D;56520;49.066;8.660;2023-01-19T05:56:55;-2.47;94.66
69359;HTU21D;56520;49.066;8.660;2023-01-19T05:59:20;-2.56;94.85
69359;HTU21D;56520;49.066;8.660;2023-01-19T06:01:51;-2.69;94.98
69359;HTU21D;56520;49.066;8.660;2023-01-19T06:04:17;-2.79;95.17
69359;HTU21D;56520;49.066;8.660;2023-01-19T06:06:43;-2.80;95.44
69359;HTU21D;56520;49.066;8.660;2023-01-19T06:09:09;-2.80;95.65
69359;HTU21D;56520;49.066;8.660;2023-01-19T06:11:34;-2.79;95.84
69359;HTU21D;56520;49.066;8.660;2023-01-19T06:14:00;-2.81;96.06
69359;HTU21D;56520;49.066;8.660;2023-01-19T06:16:26;-2.84;96.10
69359;HTU21D;56520;49.066;8.660;2023-01-19T06:18:51;-2.86;96.28
69359;HTU21D;56520;49.066;8.660;2023-01-19T06:21:17;-2.87;96.47
69359;HTU21D;56520;49.066;8.660;2023-01-19T06:23:43;-2.90;96.62
69359;HTU21D;56520;49.066;8.660;2023-01-19T06:26:09;-2.91;96.84
69359;HTU21D;56520;49.066;8.660;2023-01-19T06:28:35;-2.91;96.98
69359;HTU21D;56520;49.066;8.660;2023-01-19T06:31:00;-2.95;96.97
69359;HTU21D;56520;49.066;8.660;2023-01-19T06:33:26;-2.97;97.07
69359;HTU21D;56520;49.066;8.660;2023-01-19T06:35:52;-3.00;97.10
69359;HTU21D;56520;49.066;8.660;2023-01-19T06:38:17;-3.02;97.07
69359;HTU21D;56520;49.066;8.660;2023-01-19T06:40:44;-3.07;97.07
69359;HTU21D;56520;49.066;8.660;2023-01-19T06:43:10;-3.09;97.07
69359;HTU21D;56520;49.066;8.660;2023-01-19T06:45:36;-3.13;97.09
69359;HTU21D;56520;49.066;8.660;2023-01-19T06:48:03;-3.21;97.06
69359;HTU21D;56520;49.066;8.660;2023-01-19T06:50:29;-3.24;97.10
69359;HTU21D;56520;49.066;8.660;2023-01-19T06:52:54;-3.20;97.22
69359;HTU21D;56520;49.066;8.660;2023-01-19T06:55:20;-3.21;97.18
69359;HTU21D;56520;49.066;8.660;2023-01-19T06:57:45;-3.24;97.16
69359;HTU21D;56520;49.066;8.660;2023-01-19T07:00:12;-3.22;97.19
69359;HTU21D;56520;49.066;8.660;2023-01-19T07:02:41;-3.15;97.23
69359;HTU21D;56520;49.066;8.660;2023-01-19T07:05:07;-3.04;97.26
69359;HTU21D;56520;49.066;8.660;2023-01-19T07:07:34;-2.91;97.26
69359;HTU21D;56520;49.066;8.660;2023-01-19T07:09:59;-2.77;97.23
69359;HTU21D;56520;49.066;8.660;2023-01-19T07:12:24;-2.66;97.15
69359;HTU21D;56520;49.066;8.660;2023-01-19T07:14:50;-2.58;97.05
69359;HTU21D;56520;49.066;8.660;2023-01-19T07:17:17;-2.48;96.90
69359;HTU21D;56520;49.066;8.660;2023-01-19T07:19:42;-2.42;96.75
69359;HTU21D;56520;49.066;8.660;2023-01-19T07:22:08;-2.38;96.56
69359;HTU21D;56520;49.066;8.660;2023-01-19T07:24:33;-2.30;96.40
69359;HTU21D;56520;49.066;8.660;2023-01-19T07:26:59;-2.24;96.24
69359;HTU21D;56520;49.066;8.660;2023-01-19T07:29:25;-2.18;96.08
69359;HTU21D;56520;49.066;8.660;2023-01-19T07:31:50;-2.12;95.90
69359;HTU21D;56520;49.066;8.660;2023-01-19T07:34:19;-2.04;95.73
69359;HTU21D;56520;49.066;8.660;2023-01-19T07:36:44;-1.97;95.56
69359;HTU21D;56520;49.066;8.660;2023-01-19T07:39:09;-1.88;95.41
69359;HTU21D;56520;49.066;8.660;2023-01-19T07:41:35;-1.83;95.23
69359;HTU21D;56520;49.066;8.660;2023-01-19T07:44:00;-1.76;95.04
69359;HTU21D;56520;49.066;8.660;2023-01-19T07:46:26;-1.72;94.76
69359;HTU21D;56520;49.066;8.660;2023-01-19T07:48:51;-1.70;94.72
69359;HTU21D;56520;49.066;8.660;2023-01-19T07:51:17;-1.70;94.61
69359;HTU21D;56520;49.066;8.660;2023-01-19T07:53:44;-1.68;94.28
69359;HTU21D;56520;49.066;8.660;2023-01-19T07:56:09;-1.73;94.11
69359;HTU21D;56520;49.066;8.660;2023-01-19T07:58:35;-1.82;94.16
69359;HTU21D;56520;49.066;8.660;2023-01-19T08:01:08;-1.89;94.25
69359;HTU21D;56520;49.066;8.660;2023-01-19T08:03:34;-2.00;94.34
69359;HTU21D;56520;49.066;8.660;2023-01-19T08:06:00;-2.04;94.52
69359;HTU21D;56520;49.066;8.660;2023-01-19T08:08:28;-2.02;94.69
69359;HTU21D;56520;49.066;8.660;2023-01-19T08:10:53;-1.70;94.69
69359;HTU21D;56520;49.066;8.660;2023-01-19T08:13:19;-1.36;94.39
69359;HTU21D;56520;49.066;8.660;2023-01-19T08:15:48;-1.20;94.14
69359;HTU21D;56520;49.066;8.660;2023-01-19T08:18:14;-1.11;93.87
69359;HTU21D;56520;49.066;8.660;2023-01-19T08:20:39;-1.08;93.37
69359;HTU21D;56520;49.066;8.660;2023-01-19T08:23:05;-1.06;93.04
69359;HTU21D;56520;49.066;8.660;2023-01-19T08:25:36;-1.03;92.98
69359;HTU21D;56520;49.066;8.660;2023-01-19T08:28:04;-0.96;92.85
69359;HTU21D;56520;49.066;8.660;2023-01-19T08:30:31;-0.85;92.65
69359;HTU21D;56520;49.066;8.660;2023-01-19T08:32:56;-0.76;92.33
69359;HTU21D;56520;49.066;8.660;2023-01-19T08:35:31;-0.66;92.15
69359;HTU21D;56520;49.066;8.660;2023-01-19T08:37:57;-0.52;91.88
69359;HTU21D;56520;49.066;8.660;2023-01-19T08:40:27;-0.32;91.61
69359;HTU21D;56520;49.066;8.660;2023-01-19T08:42:57;-0.15;91.21
69359;HTU21D;56520;49.066;8.660;2023-01-19T08:45:25;-0.08;91.01
69359;HTU21D;56520;49.066;8.660;2023-01-19T08:47:51;-0.05;90.98
69359;HTU21D;56520;49.066;8.660;2023-01-19T08:50:16;0.01;90.95
69359;HTU21D;56520;49.066;8.660;2023-01-19T08:52:42;0.06;90.89
69359;HTU21D;56520;49.066;8.660;2023-01-19T08:55:08;0.09;90.75
69359;HTU21D;56520;49.066;8.660;2023-01-19T08:57:33;0.12;90.75
69359;HTU21D;56520;49.066;8.660;2023-01-19T08:59:58;0.15;90.73
69359;HTU21D;56520;49.066;8.660;2023-01-19T09:02:24;0.19;90.55
69359;HTU21D;56520;49.066;8.660;2023-01-19T09:04:49;0.21;90.52
69359;HTU21D;56520;49.066;8.660;2023-01-19T09:07:17;0.25;90.31
69359;HTU21D;56520;49.066;8.660;2023-01-19T09:09:42;0.32;90.20
69359;HTU21D;56520;49.066;8.660;2023-01-19T09:12:07;0.36;90.05
69359;HTU21D;56520;49.066;8.660;2023-01-19T09:14:33;0.43;89.95
69359;HTU21D;56520;49.066;8.660;2023-01-19T09:16:58;0.51;89.61
69359;HTU21D;56520;49.066;8.660;2023-01-19T09:19:23;0.58;89.62
69359;HTU21D;56520;49.066;8.660;2023-01-19T09:21:49;0.65;88.97
69359;HTU21D;56520;49.066;8.660;2023-01-19T09:24:15;0.72;88.71
69359;HTU21D;56520;49.066;8.660;2023-01-19T09:26:40;0.78;88.27
69359;HTU21D;56520;49.066;8.660;2023-01-19T09:29:05;0.83;86.94
69359;HTU21D;56520;49.066;8.660;2023-01-19T09:31:31;0.92;85.99
69359;HTU21D;56520;49.066;8.660;2023-01-19T09:33:56;0.99;85.06
69359;HTU21D;56520;49.066;8.660;2023-01-19T09:36:21;1.05;85.34
69359;HTU21D;56520;49.066;8.660;2023-01-19T09:38:47;1.16;84.07
69359;HTU21D;56520;49.066;8.660;2023-01-19T09:41:19;1.25;83.23
69359;HTU21D;56520;49.066;8.660;2023-01-19T09:43:59;1.42;83.22
69359;HTU21D;56520;49.066;8.660;2023-01-19T09:46:33;1.60;83.46
69359;HTU21D;56520;49.066;8.660;2023-01-19T09:49:02;1.72;81.81
69359;HTU21D;56520;49.066;8.660;2023-01-19T09:51:34;1.79;81.67
69359;HTU21D;56520;49.066;8.660;2023-01-19T09:54:18;1.86;82.07
69359;HTU21D;56520;49.066;8.660;2023-01-19T09:56:46;1.93;81.52
69359;HTU21D;56520;49.066;8.660;2023-01-19T09:59:28;1.96;81.19
69359;HTU21D;56520;49.066;8.660;2023-01-19T10:10:26;1.96;79.05
69359;HTU21D;56520;49.066;8.660;2023-01-19T10:18:22;1.91;79.37
69359;HTU21D;56520;49.066;8.660;2023-01-19T10:20:54;1.81;79.62
69359;HTU21D;56520;49.066;8.660;2023-01-19T10:28:44;1.77;80.27
69359;HTU21D;56520;49.066;8.660;2023-01-19T10:31:11;1.79;80.27
69359;HTU21D;56520;49.066;8.660;2023-01-19T10:33:37;1.85;78.68
69359;HTU21D;56520;49.066;8.660;2023-01-19T10:36:04;1.86;78.72
69359;HTU21D;56520;49.066;8.660;2023-01-19T10:38:32;1.88;78.25
69359;HTU21D;56520;49.066;8.660;2023-01-19T10:41:04;1.94;78.82
69359;HTU21D;56520;49.066;8.660;2023-01-19T10:46:05;1.95;79.75
69359;HTU21D;56520;49.066;8.660;2023-01-19T10:48:40;1.87;79.75
69359;HTU21D;56520;49.066;8.660;2023-01-19T10:51:08;2.01;77.75
69359;HTU21D;56520;49.066;8.660;2023-01-19T10:53:34;1.92;79.10
69359;HTU21D;56520;49.066;8.660;2023-01-19T10:56:19;1.86;80.15
69359;HTU21D;56520;49.066;8.660;2023-01-19T10:58:45;1.79;81.50
69359;HTU21D;56520;49.066;8.660;2023-01-19T11:03:38;1.73;82.65
69359;HTU21D;56520;49.066;8.660;2023-01-19T11:08:38;1.75;82.86
69359;HTU21D;56520;49.066;8.660;2023-01-19T11:11:04;1.77;82.79
69359;HTU21D;56520;49.066;8.660;2023-01-19T11:13:33;1.81;82.81
69359;HTU21D;56520;49.066;8.660;2023-01-19T11:16:05;1.82;82.29
69359;HTU21D;56520;49.066;8.660;2023-01-19T11:18:33;1.77;82.50
69359;HTU21D;56520;49.066;8.660;2023-01-19T11:21:01;1.70;82.66
69359;HTU21D;56520;49.066;8.660;2023-01-19T11:23:30;1.67;83.12
69359;HTU21D;56520;49.066;8.660;2023-01-19T11:26:01;1.63;83.40
69359;HTU21D;56520;49.066;8.660;2023-01-19T11:28:36;1.62;83.68
69359;HTU21D;56520;49.066;8.660;2023-01-19T11:31:16;1.64;83.08
69359;HTU21D;56520;49.066;8.660;2023-01-19T11:33:48;1.58;83.14
69359;HTU21D;56520;49.066;8.660;2023-01-19T11:36:20;1.60;82.86
69359;HTU21D;56520;49.066;8.660;2023-01-19T11:38:48;1.61;82.97
69359;HTU21D;56520;49.066;8.660;2023-01-19T11:41:17;1.58;83.21
69359;HTU21D;56520;49.066;8.660;2023-01-19T11:43:48;1.61;83.32
69359;HTU21D;56520;49.066;8.660;2023-01-19T11:46:14;1.66;82.97
69359;HTU21D;56520;49.066;8.660;2023-01-19T11:49:04;1.69;82.96
69359;HTU21D;56520;49.066;8.660;2023-01-19T11:51:46;1.76;82.83
69359;HTU21D;56520;49.066;8.660;2023-01-19T11:54:24;1.79;82.44
69359;HTU21D;56520;49.066;8.660;2023-01-19T11:56:52;1.87;81.31
69359;HTU21D;56520;49.066;8.660;2023-01-19T11:59:19;1.97;81.68
69359;HTU21D;56520;49.066;8.660;2023-01-19T12:01:52;2.12;81.52
69359;HTU21D;56520;49.066;8.660;2023-01-19T12:04:24;2.26;80.05
69359;HTU21D;56520;49.066;8.660;2023-01-19T12:06:56;2.36;79.46
69359;HTU21D;56520;49.066;8.660;2023-01-19T12:09:46;2.43;79.90
69359;HTU21D;56520;49.066;8.660;2023-01-19T12:12:34;2.57;79.88
69359;HTU21D;56520;49.066;8.660;2023-01-19T12:15:22;2.66;78.50
69359;HTU21D;56520;49.066;8.660;2023-01-19T12:17:53;2.68;79.04
69359;HTU21D;56520;49.066;8.660;2023-01-19T12:28:12;2.64;77.89
69359;HTU21D;56520;49.066;8.660;2023-01-19T12:30:38;2.56;76.93
69359;HTU21D;56520;49.066;8.660;2023-01-19T12:33:39;2.42;77.63
69359;HTU21D;56520;49.066;8.660;2023-01-19T12:36:08;2.31;78.47
69359;HTU21D;56520;49.066;8.660;2023-01-19T12:38:53;2.25;78.94
69359;HTU21D;56520;49.066;8.660;2023-01-19T12:41:32;2.21;79.34
69359;HTU21D;56520;49.066;8.660;2023-01-19T12:46:43;2.27;78.63
69359;HTU21D;56520;49.066;8.660;2023-01-19T12:54:34;2.47;78.94
69359;HTU21D;56520;49.066;8.660;2023-01-19T12:57:01;2.54;78.83
69359;HTU21D;56520;49.066;8.660;2023-01-19T12:59:28;2.58;78.82
69359;HTU21D;56520;49.066;8.660;2023-01-19T13:10:52;2.60;78.22
69359;HTU21D;56520;49.066;8.660;2023-01-19T13:13:20;2.66;78.57
69359;HTU21D;56520;49.066;8.660;2023-01-19T13:15:46;2.73;77.92
69359;HTU21D;56520;49.066;8.660;2023-01-19T13:18:28;2.79;77.98
69359;HTU21D;56520;49.066;8.660;2023-01-19T13:21:00;2.83;77.15
69359;HTU21D;56520;49.066;8.660;2023-01-19T13:23:50;2.81;77.37
69359;HTU21D;56520;49.066;8.660;2023-01-19T13:26:21;2.81;76.47
69359;HTU21D;56520;49.066;8.660;2023-01-19T13:28:51;2.84;75.92
69359;HTU21D;56520;49.066;8.660;2023-01-19T13:31:17;2.74;76.73
69359;HTU21D;56520;49.066;8.660;2023-01-19T13:36:18;2.73;77.21
69359;HTU21D;56520;49.066;8.660;2023-01-19T13:38:46;2.91;77.81
69359;HTU21D;56520;49.066;8.660;2023-01-19T13:41:15;3.11;77.24
69359;HTU21D;56520;49.066;8.660;2023-01-19T13:43:43;3.19;76.31
69359;HTU21D;56520;49.066;8.660;2023-01-19T13:46:11;3.14;75.77
69359;HTU21D;56520;49.066;8.660;2023-01-19T13:48:38;2.94;76.66
69359;HTU21D;56520;49.066;8.660;2023-01-19T13:51:04;2.68;76.84
69359;HTU21D;56520;49.066;8.660;2023-01-19T13:53:31;2.44;77.81
69359;HTU21D;56520;49.066;8.660;2023-01-19T13:56:07;2.36;77.97
69359;HTU21D;56520;49.066;8.660;2023-01-19T13:58:33;2.21;78.91
69359;HTU21D;56520;49.066;8.660;2023-01-19T14:00:58;2.17;78.88
69359;HTU21D;56520;49.066;8.660;2023-01-19T14:03:23;2.10;79.79
69359;HTU21D;56520;49.066;8.660;2023-01-19T14:05:52;2.25;78.83
69359;HTU21D;56520;49.066;8.660;2023-01-19T14:08:19;2.23;79.08
69359;HTU21D;56520;49.066;8.660;2023-01-19T14:13:21;2.25;78.66
69359;HTU21D;56520;49.066;8.660;2023-01-19T14:15:48;2.32;78.29
69359;HTU21D;56520;49.066;8.660;2023-01-19T14:23:38;2.31;78.07
69359;HTU21D;56520;49.066;8.660;2023-01-19T14:26:04;2.44;77.81
69359;HTU21D;56520;49.066;8.660;2023-01-19T14:28:35;2.50;77.15
69359;HTU21D;56520;49.066;8.660;2023-01-19T14:31:29;2.45;76.87
69359;HTU21D;56520;49.066;8.660;2023-01-19T14:33:57;2.30;77.20
69359;HTU21D;56520;49.066;8.660;2023-01-19T14:38:55;2.14;77.54
69359;HTU21D;56520;49.066;8.660;2023-01-19T14:43:53;2.02;78.70
69359;HTU21D;56520;49.066;8.660;2023-01-19T14:46:21;2.11;78.57
69359;HTU21D;56520;49.066;8.660;2023-01-19T14:48:48;2.24;78.61
69359;HTU21D;56520;49.066;8.660;2023-01-19T14:51:17;2.39;78.12
69359;HTU21D;56520;49.066;8.660;2023-01-19T14:53:52;2.49;77.84
69359;HTU21D;56520;49.066;8.660;2023-01-19T14:56:44;2.54;77.73
69359;HTU21D;56520;49.066;8.660;2023-01-19T14:59:09;2.58;76.87
69359;HTU21D;56520;49.066;8.660;2023-01-19T15:01:35;2.57;75.83
69359;HTU21D;56520;49.066;8.660;2023-01-19T15:04:00;2.53;76.94
69359;HTU21D;56520;49.066;8.660;2023-01-19T15:06:26;2.52;77.60
69359;HTU21D;56520;49.066;8.660;2023-01-19T15:08:52;2.51;77.17
69359;HTU21D;56520;49.066;8.660;2023-01-19T15:11:22;2.49;76.76
69359;HTU21D;56520;49.066;8.660;2023-01-19T15:13:48;2.46;77.12
69359;HTU21D;56520;49.066;8.660;2023-01-19T15:16:14;2.46;77.06
69359;HTU21D;56520;49.066;8.660;2023-01-19T15:18:40;2.42;76.70
69359;HTU21D;56520;49.066;8.660;2023-01-19T15:21:10;2.40;76.60
69359;HTU21D;56520;49.066;8.660;2023-01-19T15:23:38;2.30;76.90
69359;HTU21D;56520;49.066;8.660;2023-01-19T15:26:03;2.21;77.20
69359;HTU21D;56520;49.066;8.660;2023-01-19T15:28:29;2.19;76.67
69359;HTU21D;56520;49.066;8.660;2023-01-19T15:30:55;2.20;76.58
69359;HTU21D;56520;49.066;8.660;2023-01-19T15:33:24;2.14;76.90
69359;HTU21D;56520;49.066;8.660;2023-01-19T15:35:51;2.14;77.65
69359;HTU21D;56520;49.066;8.660;2023-01-19T15:38:16;2.06;77.66
69359;HTU21D;56520;49.066;8.660;2023-01-19T15:40:42;2.00;78.17
69359;HTU21D;56520;49.066;8.660;2023-01-19T15:43:08;1.97;78.48
69359;HTU21D;56520;49.066;8.660;2023-01-19T15:48:05;1.86;79.17
69359;HTU21D;56520;49.066;8.660;2023-01-19T15:50:32;1.78;79.51
69359;HTU21D;56520;49.066;8.660;2023-01-19T15:52:57;1.77;79.43
69359;HTU21D;56520;49.066;8.660;2023-01-19T15:55:24;1.73;79.58
69359;HTU21D;56520;49.066;8.660;2023-01-19T15:57:49;1.71;79.70
69359;HTU21D;56520;49.066;8.660;2023-01-19T16:00:15;1.70;79.49
69359;HTU21D;56520;49.066;8.660;2023-01-19T16:02:40;1.66;79.66
69359;HTU21D;56520;49.066;8.660;2023-01-19T16:05:06;1.61;79.99
69359;HTU21D;56520;49.066;8.660;2023-01-19T16:07:32;1.53;80.14
69359;HTU21D;56520;49.066;8.660;2023-01-19T16:09:59;1.50;80.28
69359;HTU21D;56520;49.066;8.660;2023-01-19T16:12:24;1.51;80.14
69359;HTU21D;56520;49.066;8.660;2023-01-19T16:14:50;1.45;80.55
69359;HTU21D;56520;49.066;8.660;2023-01-19T16:17:15;1.38;80.80
69359;HTU21D;56520;49.066;8.660;2023-01-19T16:19:41;1.34;81.08
69359;HTU21D;56520;49.066;8.660;2023-01-19T16:22:07;1.31;81.00
69359;HTU21D;56520;49.066;8.660;2023-01-19T16:24:32;1.26;81.20
69359;HTU21D;56520;49.066;8.660;2023-01-19T16:27:12;1.22;81.31
69359;HTU21D;56520;49.066;8.660;2023-01-19T16:29:38;1.19;81.54
69359;HTU21D;56520;49.066;8.660;2023-01-19T16:32:03;1.16;81.86
69359;HTU21D;56520;49.066;8.660;2023-01-19T16:34:29;1.13;82.00
69359;HTU21D;56520;49.066;8.660;2023-01-19T16:36:55;1.11;82.31
69359;HTU21D;56520;49.066;8.660;2023-01-19T16:39:20;1.08;82.32
69359;HTU21D;56520;49.066;8.660;2023-01-19T16:41:46;1.07;82.26
69359;HTU21D;56520;49.066;8.660;2023-01-19T16:44:12;1.06;82.40
69359;HTU21D;56520;49.066;8.660;2023-01-19T16:46:40;1.02;82.45
69359;HTU21D;56520;49.066;8.660;2023-01-19T16:49:11;0.98;82.58
69359;HTU21D;56520;49.066;8.660;2023-01-19T16:51:37;0.92;82.55
69359;HTU21D;56520;49.066;8.660;2023-01-19T16:54:02;0.86;82.71